Time;durP1;ratioP1;P1;durP2;ratioP2;P2;SDS_P1;SDS_P2;PMS_P1;PMS_P2;Temp;Humidity;BMP_temperature;BMP_pressure;BME280_temperature;BME280_humidity;BME280_pressure;Samples;Min_cycle;Max_cycle;Signal;HPM_P1;HPM_P2
2021/07/24 00:01:34;;;;;;;5.03;3.30;;;;;;;21.81;31.96;100757.28;3575620;40;20036;-77
2021/07/24 00:04:04;;;;;;;6.05;3.15;;;;;;;21.85;31.45;100763.25;3594293;40;20113;-77
2021/07/24 00:06:44;;;;;;;4.88;3.40;;;;;;;21.81;31.46;100768.41;3579706;40;20408;-78
2021/07/24 00:09:12;;;;;;;6.25;3.40;;;;;;;21.86;31.30;100758.56;3595583;40;20044;-78
2021/07/24 00:11:40;;;;;;;5.50;3.30;;;;;;;21.88;31.49;100757.28;3581923;40;20117;-78
2021/07/24 00:14:08;;;;;;;5.60;3.53;;;;;;;21.88;31.42;100745.28;3595663;40;20048;-78
2021/07/24 00:16:37;;;;;;;5.38;3.10;;;;;;;21.90;31.64;100751.53;3588867;40;20158;-77
2021/07/24 00:19:06;;;;;;;5.68;3.42;;;;;;;21.91;31.35;100740.13;3589106;40;20063;-77
2021/07/24 00:21:34;;;;;;;5.75;3.47;;;;;;;21.90;31.30;100729.25;3568400;40;20674;-77
2021/07/24 00:24:02;;;;;;;5.53;3.08;;;;;;;21.90;31.63;100721.75;3588578;40;20060;-77
2021/07/24 00:26:30;;;;;;;5.57;3.60;;;;;;;21.90;31.93;100713.38;3587874;40;20048;-77
2021/07/24 00:29:00;;;;;;;4.57;3.35;;;;;;;21.91;31.77;100711.44;3589093;40;20028;-77
2021/07/24 00:31:28;;;;;;;6.00;3.42;;;;;;;21.90;31.52;100712.53;3583271;40;20281;-77
2021/07/24 00:33:57;;;;;;;4.53;2.97;;;;;;;21.89;31.52;100705.25;3579303;40;20440;-78
2021/07/24 00:36:27;;;;;;;5.10;3.30;;;;;;;21.91;31.48;100705.88;3577636;39;20137;-77
2021/07/24 00:38:57;;;;;;;5.57;3.15;;;;;;;21.87;31.92;100711.00;3589061;40;20342;-78
2021/07/24 00:41:30;;;;;;;5.72;3.22;;;;;;;21.89;32.02;100714.47;3589418;39;20401;-77
2021/07/24 00:44:01;;;;;;;4.57;3.40;;;;;;;21.88;31.56;100717.44;3584974;40;20056;-77
2021/07/24 00:46:31;;;;;;;5.15;3.30;;;;;;;21.86;31.79;100720.44;3582865;40;20033;-78
2021/07/24 00:49:01;;;;;;;5.10;3.22;;;;;;;21.85;32.03;100715.06;3579434;40;20060;-82
2021/07/24 00:51:48;;;;;;;5.10;3.53;;;;;;;21.86;32.12;100725.13;3579057;40;20051;-78
2021/07/24 00:54:16;;;;;;;4.97;3.15;;;;;;;21.81;31.82;100723.88;3588883;40;20056;-78
2021/07/24 00:56:44;;;;;;;4.65;3.38;;;;;;;21.81;32.05;100729.44;3589726;40;20060;-77
2021/07/24 00:59:12;;;;;;;6.22;3.53;;;;;;;21.80;32.11;100718.50;3580047;40;20057;-77
2021/07/24 01:01:43;;;;;;;5.95;3.70;;;;;;;21.77;31.73;100711.41;3581668;40;20052;-77
2021/07/24 01:04:11;;;;;;;5.07;3.38;;;;;;;21.77;31.80;100718.91;3582957;40;20052;-77
2021/07/24 01:06:40;;;;;;;4.88;3.45;;;;;;;21.76;31.94;100718.03;3576242;40;20052;-77
2021/07/24 01:09:11;;;;;;;5.25;3.85;;;;;;;21.76;31.88;100712.47;3575114;40;20130;-77
2021/07/24 01:11:40;;;;;;;5.00;3.70;;;;;;;21.73;32.30;100701.78;3587149;40;20051;-77
2021/07/24 01:14:10;;;;;;;5.50;3.70;;;;;;;21.72;32.25;100699.19;3585052;40;20064;-77
2021/07/24 01:16:39;;;;;;;5.72;3.38;;;;;;;21.69;32.26;100691.25;3576118;40;20158;-77
2021/07/24 01:19:19;;;;;;;4.72;3.28;;;;;;;21.66;32.37;100695.31;3585971;40;20032;-77
2021/07/24 01:21:49;;;;;;;5.07;3.60;;;;;;;21.68;32.37;100700.66;3595395;40;20084;-78
2021/07/24 01:24:18;;;;;;;5.50;3.20;;;;;;;21.65;32.37;100701.09;3585944;40;20385;-79
2021/07/24 01:26:47;;;;;;;5.55;3.58;;;;;;;21.63;32.00;100704.09;3579001;40;20137;-77
2021/07/24 01:29:20;;;;;;;5.20;3.47;;;;;;;21.63;32.29;100708.78;3579590;40;20037;-77
2021/07/24 01:31:51;;;;;;;4.75;3.35;;;;;;;21.59;31.87;100713.06;3572383;40;20409;-78
2021/07/24 01:34:20;;;;;;;5.30;3.53;;;;;;;21.56;32.08;100716.28;3579519;40;20052;-78
2021/07/24 01:36:50;;;;;;;5.78;3.60;;;;;;;21.57;32.02;100718.00;3578893;40;20523;-78
2021/07/24 01:39:19;;;;;;;7.25;3.72;;;;;;;21.53;32.09;100703.59;3580336;40;20053;-78
2021/07/24 01:41:47;;;;;;;7.03;3.80;;;;;;;21.51;32.14;100705.72;3578924;40;21469;-78
2021/07/24 01:44:16;;;;;;;4.82;3.25;;;;;;;21.49;32.69;100699.47;3585159;40;20056;-78
2021/07/24 01:46:46;;;;;;;5.45;3.55;;;;;;;21.45;32.72;100704.63;3566093;40;20053;-78
2021/07/24 01:55:03;;;;;;;4.90;3.45;;;;;;;21.40;32.43;100715.53;3590041;40;20118;-78
2021/07/24 01:57:40;;;;;;;5.82;3.90;;;;;;;21.38;32.29;100720.44;3580014;40;20075;-78
2021/07/24 02:00:10;;;;;;;6.47;3.58;;;;;;;21.34;32.68;100712.69;3583121;40;20036;-78
2021/07/24 02:03:13;;;;;;;5.03;3.58;;;;;;;21.34;33.25;100704.34;3590226;40;20403;-78
2021/07/24 02:06:00;;;;;;;6.00;3.50;;;;;;;21.28;32.94;100696.84;3599604;40;20123;-78
2021/07/24 02:08:30;;;;;;;6.82;3.80;;;;;;;21.29;32.62;100701.34;3581665;40;20043;-77
2021/07/24 02:11:01;;;;;;;4.85;3.42;;;;;;;21.27;32.80;100703.47;3580172;40;20102;-81
2021/07/24 02:13:31;;;;;;;6.00;3.65;;;;;;;21.20;32.72;100694.22;3582403;40;20135;-77
2021/07/24 02:15:59;;;;;;;6.43;3.70;;;;;;;21.20;32.61;100694.22;3579721;40;20056;-78
2021/07/24 02:18:30;;;;;;;7.22;4.03;;;;;;;21.18;32.55;100696.34;3587607;40;20052;-78
2021/07/24 02:21:14;;;;;;;6.45;3.35;;;;;;;21.15;33.12;100700.41;3580406;40;20058;-78
2021/07/24 02:23:45;;;;;;;5.45;3.65;;;;;;;21.16;32.86;100695.72;3578612;40;20073;-78
2021/07/24 02:26:13;;;;;;;4.93;3.40;;;;;;;21.12;32.85;100686.06;3591418;40;20404;-78
2021/07/24 02:28:43;;;;;;;5.93;3.40;;;;;;;21.09;32.64;100681.75;3581178;40;20029;-77
2021/07/24 02:31:11;;;;;;;6.20;3.90;;;;;;;21.08;33.18;100668.06;3580616;40;20044;-78
2021/07/24 02:33:39;;;;;;;5.93;3.85;;;;;;;21.05;33.60;100675.75;3583585;40;20512;-77
2021/07/24 02:36:12;;;;;;;6.45;4.03;;;;;;;21.01;33.71;100670.78;3579882;40;20092;-79
2021/07/24 02:38:40;;;;;;;5.82;3.90;;;;;;;20.98;33.33;100660.97;3596129;40;20421;-77
2021/07/24 02:41:10;;;;;;;5.28;3.88;;;;;;;20.95;33.86;100643.81;3589144;40;20051;-78
2021/07/24 02:43:37;;;;;;;5.50;4.30;;;;;;;20.88;34.10;100640.97;3588805;40;20122;-78
2021/07/24 02:46:05;;;;;;;5.97;4.15;;;;;;;20.85;34.03;100634.94;3589231;40;20387;-78
2021/07/24 02:48:34;;;;;;;6.72;3.92;;;;;;;20.81;33.81;100625.31;3574868;40;20370;-77
2021/07/24 02:51:18;;;;;;;7.05;3.95;;;;;;;20.78;34.24;100617.38;3580405;40;20141;-77
2021/07/24 02:53:49;;;;;;;5.82;3.65;;;;;;;20.76;33.77;100612.03;3588425;40;20051;-78
2021/07/24 02:56:19;;;;;;;6.32;4.30;;;;;;;20.77;34.17;100607.31;3579926;40;20051;-78
2021/07/24 02:58:47;;;;;;;6.38;4.00;;;;;;;20.72;33.88;100602.38;3589844;40;20096;-77
2021/07/24 03:01:16;;;;;;;7.55;4.30;;;;;;;20.72;34.50;100590.41;3579936;40;20041;-78
2021/07/24 03:03:44;;;;;;;5.75;4.60;;;;;;;20.70;34.72;100587.84;3590401;40;20090;-78
2021/07/24 03:06:12;;;;;;;7.05;4.72;;;;;;;20.67;34.90;100591.00;3589024;40;20324;-78
2021/07/24 03:08:40;;;;;;;6.32;3.90;;;;;;;20.63;34.63;100593.34;3589808;40;20060;-78
2021/07/24 03:11:08;;;;;;;6.38;4.40;;;;;;;20.60;34.52;100592.91;3580118;40;20052;-77
2021/07/24 03:13:37;;;;;;;6.13;4.40;;;;;;;20.59;34.35;100611.50;3589919;40;20117;-78
2021/07/24 03:16:05;;;;;;;6.57;4.10;;;;;;;20.55;34.25;100615.75;3579667;40;20067;-79
2021/07/24 03:18:33;;;;;;;6.03;4.47;;;;;;;20.54;34.02;100596.50;3580579;40;20040;-77
2021/07/24 03:21:01;;;;;;;6.43;4.28;;;;;;;20.54;34.63;100589.03;3589140;40;20321;-78
2021/07/24 03:23:29;;;;;;;6.50;3.95;;;;;;;20.54;34.31;100594.59;3589792;40;20039;-86
2021/07/24 03:25:57;;;;;;;6.15;4.28;;;;;;;20.54;34.27;100594.59;3588990;40;20445;-78
2021/07/24 03:28:26;;;;;;;6.47;4.32;;;;;;;20.54;34.77;100591.81;3590248;40;20312;-78
2021/07/24 03:30:55;;;;;;;8.40;4.53;;;;;;;20.55;34.49;100590.75;3594891;40;20129;-78
2021/07/24 03:33:23;;;;;;;6.07;4.28;;;;;;;20.53;34.44;100586.44;3596526;40;20052;-78
2021/07/24 03:35:51;;;;;;;6.40;4.55;;;;;;;20.53;34.95;100587.31;3589202;40;20056;-78
2021/07/24 03:38:19;;;;;;;6.43;4.80;;;;;;;20.52;35.26;100579.16;3589777;40;20052;-78
2021/07/24 03:40:47;;;;;;;6.18;4.78;;;;;;;20.49;34.71;100574.03;3589218;40;20056;-78
2021/07/24 03:43:16;;;;;;;7.25;4.75;;;;;;;20.46;34.76;100572.50;3580340;40;20044;-78
2021/07/24 03:45:43;;;;;;;7.07;4.80;;;;;;;20.41;35.00;100575.06;3590717;40;20346;-78
2021/07/24 03:48:13;;;;;;;6.78;4.65;;;;;;;20.41;35.20;100579.75;3592570;40;20032;-78
2021/07/24 03:50:42;;;;;;;6.38;4.75;;;;;;;20.37;34.95;100587.63;3588928;40;20102;-78
2021/07/24 03:53:10;;;;;;;7.43;4.97;;;;;;;20.32;35.15;100584.59;3588798;40;20138;-78
2021/07/24 03:55:38;;;;;;;7.22;4.80;;;;;;;20.30;35.24;100582.03;3588394;40;20036;-78
2021/07/24 03:58:06;;;;;;;5.82;4.38;;;;;;;20.29;35.00;100583.09;3580608;40;20065;-78
2021/07/24 04:00:39;;;;;;;5.82;4.28;;;;;;;20.27;35.00;100576.00;3589029;40;20056;-78
2021/07/24 04:03:07;;;;;;;6.22;4.32;;;;;;;20.25;35.35;100573.44;3580428;40;20378;-78
2021/07/24 04:05:43;;;;;;;7.85;4.97;;;;;;;20.29;34.86;100582.22;3597579;39;20036;-78
2021/07/24 04:08:12;;;;;;;6.38;4.07;;;;;;;20.27;35.35;100589.91;3593676;40;20502;-77
2021/07/24 04:10:41;;;;;;;6.32;4.13;;;;;;;20.27;35.55;100596.31;3588738;40;20041;-78
2021/07/24 04:13:09;;;;;;;6.47;4.40;;;;;;;20.29;35.37;100587.78;3580498;40;20376;-78
2021/07/24 04:15:38;;;;;;;6.95;4.72;;;;;;;20.29;35.57;100571.97;3590945;40;20072;-78
2021/07/24 04:18:08;;;;;;;7.30;5.35;;;;;;;20.31;36.10;100558.75;3583329;40;20266;-78
2021/07/24 04:20:38;;;;;;;6.47;4.43;;;;;;;20.32;36.00;100573.50;3588902;40;20037;-78
2021/07/24 04:23:06;;;;;;;6.35;4.60;;;;;;;20.30;35.49;100583.94;3580058;40;20076;-78
2021/07/24 04:25:34;;;;;;;6.28;4.35;;;;;;;20.30;35.99;100582.03;3579609;40;20081;-79
2021/07/24 04:28:03;;;;;;;6.40;4.65;;;;;;;20.32;35.58;100579.06;3589677;40;20385;-78
2021/07/24 04:30:33;;;;;;;6.32;4.95;;;;;;;20.34;36.07;100568.56;3589348;40;20032;-78
2021/07/24 04:33:01;;;;;;;6.68;4.65;;;;;;;20.31;35.84;100567.09;3586399;40;20039;-78
2021/07/24 04:35:29;;;;;;;6.75;4.82;;;;;;;20.32;35.63;100579.06;3585736;40;20060;-78
2021/07/24 04:37:58;;;;;;;6.85;4.72;;;;;;;20.35;35.39;100586.09;3589533;40;20032;-78
2021/07/24 04:40:26;;;;;;;6.65;4.47;;;;;;;20.33;35.96;100583.56;3589350;40;20461;-78
2021/07/24 04:42:54;;;;;;;7.45;5.03;;;;;;;20.34;35.89;100589.97;3588877;40;20041;-78
2021/07/24 04:45:41;;;;;;;6.32;4.90;;;;;;;20.39;36.46;100593.84;3605277;39;20439;-69
2021/07/24 04:48:09;;;;;;;6.18;4.35;;;;;;;20.38;36.05;100599.59;3589223;39;20044;-68
2021/07/24 04:50:41;;;;;;;6.05;4.55;;;;;;;20.42;36.16;100604.53;3586341;39;20033;-68
2021/07/24 04:53:10;;;;;;;7.50;4.82;;;;;;;20.41;36.14;100600.06;3596704;39;20116;-68
2021/07/24 04:55:38;;;;;;;5.93;4.18;;;;;;;20.43;36.20;100597.91;3596172;39;20036;-68
2021/07/24 04:58:08;;;;;;;7.70;4.65;;;;;;;20.45;35.64;100600.50;3595388;40;20033;-68
2021/07/24 05:00:39;;;;;;;6.65;4.70;;;;;;;20.49;35.99;100608.25;3595967;39;20039;-68
2021/07/24 05:03:07;;;;;;;7.90;4.82;;;;;;;20.49;36.53;100596.28;3596395;39;20044;-67
2021/07/24 05:05:36;;;;;;;7.25;4.50;;;;;;;20.50;36.36;100598.81;3595951;39;20039;-68
2021/07/24 05:08:05;;;;;;;7.80;4.90;;;;;;;20.53;36.29;100600.34;3596722;39;20501;-68
2021/07/24 05:10:33;;;;;;;6.85;5.00;;;;;;;20.53;36.18;100592.88;3595533;39;20033;-68
2021/07/24 05:13:01;;;;;;;6.93;5.05;;;;;;;20.55;36.64;100585.19;3599037;39;20036;-68
2021/07/24 05:15:28;;;;;;;7.50;4.93;;;;;;;20.57;36.98;100577.50;3603424;39;20110;-69
2021/07/24 05:17:58;;;;;;;7.20;5.43;;;;;;;20.62;36.30;100571.31;3593658;39;20348;-68
2021/07/24 05:20:26;;;;;;;6.32;4.75;;;;;;;20.62;37.12;100561.06;3595154;39;20036;-68
2021/07/24 05:22:54;;;;;;;6.88;4.85;;;;;;;20.64;37.01;100563.66;3587513;40;20289;-67
2021/07/24 05:25:22;;;;;;;8.40;5.35;;;;;;;20.67;36.64;100560.44;3589769;40;20044;-68
2021/07/24 05:27:49;;;;;;;6.43;4.68;;;;;;;20.70;36.80;100555.34;3576744;39;20060;-69
2021/07/24 05:30:17;;;;;;;6.22;4.80;;;;;;;20.75;36.92;100551.91;3585511;40;20300;-69
2021/07/24 05:32:45;;;;;;;6.93;5.10;;;;;;;20.79;36.99;100550.47;3577701;40;20037;-68
2021/07/24 05:35:14;;;;;;;7.90;5.30;;;;;;;20.87;37.33;100543.88;3585477;40;20044;-68
2021/07/24 05:37:42;;;;;;;7.28;5.18;;;;;;;20.90;37.63;100544.34;3577222;40;20049;-68
2021/07/24 05:40:11;;;;;;;8.68;5.25;;;;;;;20.96;37.36;100539.88;3585511;40;20033;-68
2021/07/24 05:42:39;;;;;;;7.32;5.15;;;;;;;21.01;37.47;100537.31;3582900;39;20057;-68
2021/07/24 05:45:07;;;;;;;6.88;5.25;;;;;;;21.06;37.02;100529.22;3576176;40;20068;-68
2021/07/24 05:47:35;;;;;;;7.35;5.38;;;;;;;21.10;37.04;100524.94;3589787;39;20053;-70
2021/07/24 05:50:04;;;;;;;7.18;5.22;;;;;;;21.16;37.33;100532.44;3587511;39;20694;-68
2021/07/24 05:52:34;;;;;;;7.82;5.47;;;;;;;21.22;36.97;100530.75;3584858;39;20040;-70
2021/07/24 05:55:02;;;;;;;8.25;5.60;;;;;;;21.24;37.22;100531.41;3585130;40;20373;-70
2021/07/24 05:57:29;;;;;;;7.53;5.50;;;;;;;21.28;37.11;100536.34;3578730;40;20049;-70
2021/07/24 05:59:57;;;;;;;7.57;5.55;;;;;;;21.33;37.53;100539.31;3579203;40;20330;-70
2021/07/24 06:02:25;;;;;;;6.95;5.18;;;;;;;21.37;36.84;100537.00;3579161;40;20049;-70
2021/07/24 06:04:53;;;;;;;8.93;5.80;;;;;;;21.40;36.93;100531.88;3579649;40;20073;-71
2021/07/24 06:07:21;;;;;;;6.68;5.35;;;;;;;21.44;36.72;100538.72;3579184;40;20075;-70
2021/07/24 06:09:51;;;;;;;8.27;5.63;;;;;;;21.51;37.31;100537.84;3579283;40;20037;-70
2021/07/24 06:12:19;;;;;;;7.00;5.50;;;;;;;21.53;37.42;100539.38;3579067;40;20087;-70
2021/07/24 06:14:47;;;;;;;7.85;5.47;;;;;;;21.57;37.15;100532.34;3579344;40;20309;-70
2021/07/24 06:17:15;;;;;;;7.47;5.78;;;;;;;21.62;36.91;100518.66;3579315;40;20055;-69
2021/07/24 06:19:43;;;;;;;8.43;6.28;;;;;;;21.67;37.17;100521.63;3579346;40;20036;-69
2021/07/24 06:22:11;;;;;;;8.10;5.80;;;;;;;21.72;37.05;100516.31;3578998;40;20103;-69
2021/07/24 06:24:39;;;;;;;8.57;6.18;;;;;;;21.78;36.89;100518.22;3579745;40;20040;-69
2021/07/24 06:27:08;;;;;;;8.73;5.68;;;;;;;21.86;37.20;100513.50;3578624;40;20471;-69
2021/07/24 06:29:36;;;;;;;7.53;5.90;;;;;;;21.88;37.22;100512.22;3579497;40;20033;-69
2021/07/24 06:32:05;;;;;;;7.70;5.40;;;;;;;21.93;36.78;100512.44;3587601;39;20056;-63
2021/07/24 06:34:32;;;;;;;7.43;5.40;;;;;;;21.99;36.82;100516.28;3584649;40;20025;-64
2021/07/24 06:37:00;;;;;;;8.45;5.40;;;;;;;22.05;36.57;100513.50;3579088;40;20055;-63
2021/07/24 06:39:28;;;;;;;9.45;5.78;;;;;;;22.09;36.49;100517.56;3579809;40;20030;-62
2021/07/24 06:41:56;;;;;;;8.13;6.07;;;;;;;22.16;36.33;100514.75;3578621;40;20040;-62
2021/07/24 06:44:27;;;;;;;7.28;5.68;;;;;;;22.24;36.82;100519.25;3579652;40;20033;-62
2021/07/24 06:46:56;;;;;;;9.13;6.05;;;;;;;22.26;36.70;100508.78;3578223;40;20393;-63
2021/07/24 06:49:23;;;;;;;8.02;5.63;;;;;;;22.30;36.56;100515.63;3579452;40;20029;-62
2021/07/24 06:51:51;;;;;;;7.47;5.35;;;;;;;22.34;36.07;100509.41;3578419;40;20041;-62
2021/07/24 06:54:19;;;;;;;7.80;6.03;;;;;;;22.39;35.71;100505.97;3579488;40;20041;-62
2021/07/24 06:56:47;;;;;;;7.43;6.20;;;;;;;22.42;36.08;100505.50;3578773;40;20289;-63
2021/07/24 06:59:15;;;;;;;8.32;5.88;;;;;;;22.45;36.33;100500.38;3634076;22;20323;-67
2021/07/24 07:01:47;;;;;;;8.35;5.88;;;;;;;22.50;36.01;100494.13;3579511;39;20078;-68
2021/07/24 07:04:15;;;;;;;8.70;5.80;;;;;;;22.50;35.87;100492.19;3596361;39;20064;-68
2021/07/24 07:06:43;;;;;;;7.88;5.70;;;;;;;22.51;36.04;100485.53;3589969;39;20036;-67
2021/07/24 07:09:11;;;;;;;8.73;6.15;;;;;;;22.55;36.06;100477.63;3591707;39;20052;-68
2021/07/24 07:11:39;;;;;;;8.02;5.47;;;;;;;22.55;36.17;100474.81;3590492;39;20480;-68
2021/07/24 07:14:07;;;;;;;8.43;5.70;;;;;;;22.56;36.14;100479.31;3592278;39;20052;-67
2021/07/24 07:16:35;;;;;;;7.32;5.90;;;;;;;22.57;36.05;100470.72;3589497;39;20660;-69
2021/07/24 07:19:07;;;;;;;7.45;5.70;;;;;;;22.61;36.04;100461.94;3592474;40;20064;-68
2021/07/24 07:22:18;;;;;;;7.47;5.30;;;;;;;22.56;36.12;100440.31;3587445;39;20051;-64
2021/07/24 07:24:57;;;;;;;8.65;5.57;;;;;;;22.59;36.33;100445.41;3593736;40;20059;-63
2021/07/24 07:27:55;;;;;;;8.57;6.22;;;;;;;22.54;36.01;100421.00;3572129;40;20036;-65
2021/07/24 07:30:23;;;;;;;8.85;6.07;;;;;;;22.55;36.03;100417.16;3589182;40;20044;-65
2021/07/24 07:32:50;;;;;;;8.00;5.43;;;;;;;22.55;36.11;100416.28;3587674;39;20409;-66
2021/07/24 07:35:20;;;;;;;8.85;6.20;;;;;;;22.57;35.88;100416.91;3595701;39;20105;-65
2021/07/24 07:38:03;;;;;;;7.72;5.93;;;;;;;22.58;35.98;100421.41;3592140;39;20051;-64
2021/07/24 07:40:39;;;;;;;21.75;6.35;;;;;;;22.55;36.07;100419.94;3592896;39;20032;-66
2021/07/24 07:43:08;;;;;;;9.40;6.30;;;;;;;22.58;36.02;100415.81;3597206;40;20032;-66
2021/07/24 07:45:37;;;;;;;8.20;6.13;;;;;;;22.59;36.04;100417.53;3596456;39;20028;-66
2021/07/24 07:48:06;;;;;;;7.97;6.00;;;;;;;22.62;36.11;100419.03;3596326;39;20063;-69
2021/07/24 07:50:36;;;;;;;8.32;6.03;;;;;;;22.66;36.20;100412.78;3595359;39;20040;-65
2021/07/24 07:53:05;;;;;;;8.82;6.32;;;;;;;22.68;36.21;100410.63;3595664;39;20048;-64
2021/07/24 07:55:32;;;;;;;9.27;6.90;;;;;;;22.71;36.55;100410.19;3595092;39;20403;-64
2021/07/24 07:58:01;;;;;;;8.18;5.65;;;;;;;22.76;36.16;100420.66;3597037;39;20059;-63
2021/07/24 08:00:28;;;;;;;11.35;6.85;;;;;;;22.83;36.50;100427.94;3595404;39;20040;-64
2021/07/24 08:02:56;;;;;;;8.90;6.00;;;;;;;22.92;36.29;100431.31;3593797;39;20036;-64
2021/07/24 08:05:24;;;;;;;7.07;5.38;;;;;;;23.00;36.82;100427.41;3586818;40;20066;-64
2021/07/24 08:07:53;;;;;;;7.18;5.80;;;;;;;23.10;36.71;100431.44;3585119;40;20041;-62
2021/07/24 08:10:21;;;;;;;7.78;5.90;;;;;;;23.17;36.75;100423.88;3592273;40;20065;-63
2021/07/24 08:12:50;;;;;;;7.85;5.50;;;;;;;23.26;36.65;100425.31;3596863;39;20081;-63
2021/07/24 08:15:18;;;;;;;6.38;5.15;;;;;;;23.36;36.59;100427.59;3600907;39;20420;-63
2021/07/24 08:17:46;;;;;;;9.77;6.13;;;;;;;23.45;36.56;100425.38;3606606;39;20047;-63
2021/07/24 08:20:14;;;;;;;7.35;5.70;;;;;;;23.55;36.09;100422.97;3607361;39;20527;-63
2021/07/24 08:22:42;;;;;;;7.82;5.93;;;;;;;23.63;36.34;100426.28;3606772;39;20040;-64
2021/07/24 08:25:12;;;;;;;8.48;5.95;;;;;;;23.74;36.01;100424.69;3607362;39;20475;-63
2021/07/24 08:27:40;;;;;;;9.10;6.20;;;;;;;23.78;35.84;100425.97;3606967;39;20053;-63
2021/07/24 08:30:09;;;;;;;7.82;6.03;;;;;;;23.87;35.80;100427.38;3607028;39;20096;-63
2021/07/24 08:32:37;;;;;;;7.43;6.10;;;;;;;23.93;35.55;100425.59;3606487;39;20047;-64
2021/07/24 08:35:06;;;;;;;8.27;5.85;;;;;;;23.99;35.48;100425.50;3606821;39;20034;-64
2021/07/24 08:37:34;;;;;;;8.45;6.22;;;;;;;24.04;35.40;100427.63;3606579;39;20128;-63
2021/07/24 08:40:02;;;;;;;7.97;6.05;;;;;;;24.09;35.61;100433.41;3606912;39;20039;-63
2021/07/24 08:42:33;;;;;;;8.23;5.57;;;;;;;24.17;35.23;100435.03;3606453;39;20305;-63
2021/07/24 08:45:01;;;;;;;7.10;5.50;;;;;;;24.20;35.38;100435.44;3606950;39;20032;-63
2021/07/24 08:47:30;;;;;;;9.40;6.00;;;;;;;24.23;35.46;100432.16;3606255;39;20422;-63
2021/07/24 08:50:00;;;;;;;8.32;5.70;;;;;;;24.29;35.34;100435.97;3606988;39;20132;-64
2021/07/24 08:52:30;;;;;;;8.00;5.63;;;;;;;24.33;35.32;100440.00;3606450;39;20394;-63
2021/07/24 08:54:59;;;;;;;7.82;5.82;;;;;;;24.35;35.20;100437.84;3607530;39;20039;-64
2021/07/24 08:57:33;;;;;;;7.93;6.07;;;;;;;24.39;35.23;100442.72;3606515;39;20078;-64
2021/07/24 09:00:08;;;;;;;8.45;6.50;;;;;;;24.43;35.27;100432.78;3607398;39;20047;-63
2021/07/24 09:02:39;;;;;;;10.13;6.20;;;;;;;24.45;34.95;100438.97;3606602;39;20051;-63
2021/07/24 09:05:08;;;;;;;7.43;6.05;;;;;;;24.47;35.28;100435.09;3606749;39;20032;-63
2021/07/24 09:07:39;;;;;;;8.88;6.20;;;;;;;24.50;34.83;100435.50;3606113;39;20377;-64
2021/07/24 09:10:09;;;;;;;8.77;6.50;;;;;;;24.52;34.83;100435.25;3606792;39;20044;-64
2021/07/24 09:12:39;;;;;;;9.07;6.63;;;;;;;24.51;34.73;100430.75;3605959;39;20039;-64
2021/07/24 09:15:11;;;;;;;9.50;6.32;;;;;;;24.55;34.66;100434.78;3607009;39;20055;-64
2021/07/24 09:17:39;;;;;;;7.50;6.20;;;;;;;24.50;34.65;100435.50;3596333;39;20052;-64
2021/07/24 09:20:08;;;;;;;10.57;6.63;;;;;;;24.53;34.49;100440.63;3596377;39;20028;-64
2021/07/24 09:22:37;;;;;;;8.88;6.35;;;;;;;24.54;34.57;100455.47;3595884;39;20488;-64
2021/07/24 09:25:07;;;;;;;8.90;5.97;;;;;;;24.54;34.58;100455.47;3596160;39;20048;-64
2021/07/24 09:27:35;;;;;;;9.15;6.60;;;;;;;24.52;34.56;100466.03;3596361;39;20048;-65
2021/07/24 09:30:04;;;;;;;8.13;6.80;;;;;;;24.52;34.60;100478.06;3596320;39;20043;-66
2021/07/24 09:32:33;;;;;;;9.65;7.05;;;;;;;24.52;34.47;100477.22;3597039;39;20117;-65
2021/07/24 09:35:02;;;;;;;8.68;6.25;;;;;;;24.48;34.15;100475.94;3597834;39;20109;-64
2021/07/24 09:37:32;;;;;;;9.73;6.40;;;;;;;24.47;34.42;100475.09;3597337;39;20043;-64
2021/07/24 09:40:20;;;;;;;8.98;6.45;;;;;;;24.44;34.55;100465.25;3598526;39;20031;-64
2021/07/24 09:42:48;;;;;;;9.52;6.50;;;;;;;24.42;34.51;100464.63;3597830;39;20051;-64
2021/07/24 09:45:16;;;;;;;9.07;6.65;;;;;;;24.42;34.36;100456.25;3597839;39;20072;-64
2021/07/24 09:47:47;;;;;;;9.38;6.60;;;;;;;24.43;34.33;100457.09;3596283;39;20178;-65
2021/07/24 09:50:17;;;;;;;7.40;6.13;;;;;;;24.41;34.57;100448.06;3597585;39;20020;-64
2021/07/24 09:52:46;;;;;;;8.75;6.80;;;;;;;24.38;34.63;100443.81;3597280;39;20049;-64
2021/07/24 09:55:18;;;;;;;8.40;6.50;;;;;;;24.39;34.23;100451.09;3598018;39;20024;-67
2021/07/24 09:57:46;;;;;;;8.73;6.57;;;;;;;24.35;34.36;100451.81;3596962;39;20032;-67
2021/07/24 10:00:26;;;;;;;9.95;7.15;;;;;;;24.37;34.47;100455.25;3597810;39;20036;-67
2021/07/24 10:03:00;;;;;;;11.27;6.60;;;;;;;24.33;34.47;100457.63;3597094;39;20044;-67
2021/07/24 10:05:37;;;;;;;9.55;6.70;;;;;;;24.33;34.64;100460.44;3597129;39;20039;-67
2021/07/24 10:08:07;;;;;;;8.35;6.75;;;;;;;24.31;34.66;100453.34;3597755;39;20032;-67
2021/07/24 10:10:37;;;;;;;10.07;6.90;;;;;;;24.31;34.58;100459.81;3587344;39;20029;-65
2021/07/24 10:13:09;;;;;;;9.05;6.88;;;;;;;24.32;34.84;100463.44;3587721;40;20084;-65
2021/07/24 10:15:38;;;;;;;10.07;6.83;;;;;;;24.29;34.77;100455.56;3587454;39;20405;-66
2021/07/24 10:18:10;;;;;;;9.35;6.30;;;;;;;24.34;34.92;100458.50;3604642;39;20039;-64
2021/07/24 10:20:40;;;;;;;8.23;6.22;;;;;;;24.32;34.82;100467.09;3596791;39;20129;-63
2021/07/24 10:23:09;;;;;;;9.23;6.53;;;;;;;24.34;34.72;100473.31;3597644;39;20244;-63
2021/07/24 10:25:50;;;;;;;8.73;6.75;;;;;;;24.37;34.92;100474.81;3596516;39;20040;-63
2021/07/24 10:28:23;;;;;;;8.70;6.78;;;;;;;24.36;34.55;100479.53;3597756;39;20032;-63
2021/07/24 10:30:53;;;;;;;10.43;6.75;;;;;;;24.34;34.59;100478.06;3597387;39;20101;-63
2021/07/24 10:33:25;;;;;;;8.35;6.72;;;;;;;24.37;34.76;100480.41;3597490;39;20041;-63
2021/07/24 10:36:10;;;;;;;9.10;6.82;;;;;;;24.33;34.73;100473.56;3594410;39;20411;-68
2021/07/24 10:38:38;;;;;;;9.93;6.40;;;;;;;24.33;34.45;100476.34;3587983;40;20029;-63
2021/07/24 10:41:35;;;;;;;8.13;6.28;;;;;;;24.33;34.53;100471.63;3586847;39;20040;-65
2021/07/24 10:44:04;;;;;;;9.65;6.72;;;;;;;24.31;34.67;100478.50;3587533;40;20207;-69
2021/07/24 10:47:09;;;;;;;7.90;6.40;;;;;;;24.30;34.50;100482.38;3586327;39;20040;-69
2021/07/24 10:50:05;;;;;;;10.10;7.18;;;;;;;24.24;34.43;100489.78;3592081;40;20082;-70
2021/07/24 10:53:09;;;;;;;8.75;6.60;;;;;;;24.25;34.52;100488.69;3581011;40;20048;-70
2021/07/24 10:55:41;;;;;;;8.55;6.38;;;;;;;24.23;34.46;100495.59;3586705;39;20388;-69
2021/07/24 10:58:09;;;;;;;8.85;6.88;;;;;;;24.16;34.48;100481.69;3593061;40;20032;-68
2021/07/24 11:00:53;;;;;;;10.30;7.45;;;;;;;24.21;34.70;100481.84;3596740;39;20319;-68
2021/07/24 11:03:35;;;;;;;8.57;7.03;;;;;;;24.18;34.85;100489.84;3597344;39;20035;-68
2021/07/24 11:06:27;;;;;;;9.70;7.47;;;;;;;24.13;34.72;100484.94;3592967;39;20040;-69
2021/07/24 11:09:29;;;;;;;8.00;6.85;;;;;;;24.09;34.76;100497.66;3596231;40;20421;-68
2021/07/24 11:12:07;;;;;;;10.60;6.65;;;;;;;24.12;34.62;100493.56;3584002;39;20312;-68
2021/07/24 11:14:56;;;;;;;8.95;7.28;;;;;;;24.06;34.82;100498.13;3586979;40;20036;-68
2021/07/24 11:17:25;;;;;;;9.80;7.25;;;;;;;24.05;34.69;100501.97;3586558;39;20040;-69
2021/07/24 11:20:34;;;;;;;9.98;7.80;;;;;;;24.02;34.94;100508.03;3592357;40;20052;-64
2021/07/24 11:23:09;;;;;;;7.93;6.40;;;;;;;24.01;34.68;100506.31;3594903;40;20422;-73
2021/07/24 11:25:39;;;;;;;9.70;6.82;;;;;;;23.98;34.57;100499.25;3596955;39;20040;-74
2021/07/24 11:28:08;;;;;;;8.65;7.05;;;;;;;23.96;35.02;100495.81;3596850;39;20148;-73
2021/07/24 11:30:36;;;;;;;9.85;7.13;;;;;;;23.96;34.92;100497.78;3594888;39;20043;-73
2021/07/24 11:33:05;;;;;;;8.90;7.22;;;;;;;23.97;34.98;100507.84;3596976;39;20153;-73
2021/07/24 11:35:38;;;;;;;9.35;6.88;;;;;;;23.98;35.24;100509.56;3595877;39;20036;-73
2021/07/24 11:38:25;;;;;;;9.90;7.25;;;;;;;23.99;35.25;100509.34;3596925;39;20036;-74
2021/07/24 11:41:07;;;;;;;8.48;6.57;;;;;;;24.00;35.14;100507.41;3595978;39;20056;-73
2021/07/24 11:43:35;;;;;;;8.73;6.95;;;;;;;23.97;35.44;100500.31;3597288;39;20051;-74
2021/07/24 11:46:08;;;;;;;11.35;7.93;;;;;;;24.03;35.25;100506.94;3595779;39;20130;-73
2021/07/24 11:48:38;;;;;;;10.90;7.32;;;;;;;24.02;35.17;100505.25;3591934;39;20045;-73